createdAt,value
2023-05-08T00:00:02.102Z,66.08
2023-05-08T00:01:04.224Z,66.02
2023-05-08T00:02:06.434Z,66.01
2023-05-08T00:03:08.715Z,66.31
2023-05-08T00:04:11.187Z,66.42
2023-05-08T00:05:13.548Z,66.56
2023-05-08T00:06:15.673Z,66.35
2023-05-08T00:07:17.785Z,66.51
2023-05-08T00:08:19.858Z,66.22
2023-05-08T00:09:21.940Z,66.22
2023-05-08T00:10:24.044Z,66.90
2023-05-08T00:11:26.125Z,66.74
2023-05-08T00:12:28.221Z,66.66
2023-05-08T00:13:30.341Z,66.06
2023-05-08T00:14:32.394Z,65.91
2023-05-08T00:15:36.397Z,66.09
2023-05-08T00:16:38.532Z,65.58
2023-05-08T00:17:40.930Z,65.41
2023-05-08T00:18:43.140Z,65.31
2023-05-08T00:19:45.364Z,65.21
2023-05-08T00:20:47.513Z,65.87
2023-05-08T00:21:49.603Z,65.62
2023-05-08T00:22:51.701Z,65.92
2023-05-08T00:23:53.792Z,66.22
2023-05-08T00:24:55.838Z,65.98
2023-05-08T00:25:58.031Z,65.91
2023-05-08T00:27:00.149Z,65.95
2023-05-08T00:28:02.283Z,66.41
2023-05-08T00:29:06.491Z,66.20
2023-05-08T00:30:09.651Z,66.26
2023-05-08T00:31:12.002Z,66.13
2023-05-08T00:32:14.124Z,66.04
2023-05-08T00:33:16.576Z,65.71
2023-05-08T00:34:18.696Z,65.49
2023-05-08T00:35:20.906Z,65.92
2023-05-08T00:36:23.019Z,66.47
2023-05-08T00:37:25.119Z,66.43
2023-05-08T00:38:27.296Z,66.38
2023-05-08T00:39:29.623Z,66.72
2023-05-08T00:40:31.796Z,66.74
2023-05-08T00:41:33.890Z,66.65
2023-05-08T00:42:36.032Z,66.49
2023-05-08T00:43:39.955Z,66.56
2023-05-08T00:44:42.168Z,65.98
2023-05-08T00:45:44.306Z,66.26
2023-05-08T00:46:46.757Z,66.70
2023-05-08T00:47:50.249Z,66.50
2023-05-08T00:48:52.431Z,67.08
2023-05-08T00:49:54.573Z,66.40
2023-05-08T00:50:56.855Z,67.24
2023-05-08T00:51:58.959Z,66.26
2023-05-08T00:53:03.158Z,66.00
2023-05-08T00:54:05.447Z,66.18
2023-05-08T00:55:07.953Z,66.07
2023-05-08T00:56:14.374Z,66.66
2023-05-08T00:57:16.860Z,66.55
2023-05-08T00:58:21.016Z,66.72
2023-05-08T00:59:24.240Z,66.70
2023-05-08T01:00:26.554Z,66.96
2023-05-08T01:01:29.087Z,67.04
2023-05-08T01:02:31.864Z,67.13
2023-05-08T01:03:35.934Z,67.63
2023-05-08T01:04:38.432Z,67.65
2023-05-08T01:05:41.078Z,68.01
2023-05-08T01:06:43.223Z,67.86
2023-05-08T01:07:45.712Z,67.98
2023-05-08T01:08:47.926Z,67.60
2023-05-08T01:09:50.045Z,67.48
2023-05-08T01:11:10.560Z,67.78
2023-05-08T01:12:21.304Z,67.58
2023-05-08T01:13:31.915Z,68.62
2023-05-08T01:14:52.836Z,67.23
2023-05-08T01:16:01.042Z,67.93
2023-05-08T01:17:12.640Z,67.83
2023-05-08T01:18:23.278Z,68.29
2023-05-08T01:19:50.276Z,67.14
2023-05-08T01:21:01.174Z,66.83
2023-05-08T01:22:17.415Z,65.74
2023-05-08T01:23:39.785Z,67.15
2023-05-08T01:25:14.241Z,66.96
2023-05-08T01:26:36.727Z,66.57
2023-05-08T01:27:57.764Z,67.17
2023-05-08T01:29:17.929Z,66.50
2023-05-08T01:30:46.175Z,66.76
2023-05-08T01:32:06.683Z,67.52
2023-05-08T01:33:14.568Z,67.60
2023-05-08T01:34:25.557Z,67.72
2023-05-08T01:35:30.555Z,66.62
2023-05-08T01:36:38.275Z,67.42
2023-05-08T01:37:40.535Z,67.75
2023-05-08T01:38:56.030Z,67.35
2023-05-08T01:40:11.809Z,66.90
2023-05-08T01:41:20.067Z,66.53
2023-05-08T01:42:49.400Z,66.65
2023-05-08T01:43:54.073Z,65.67
2023-05-08T01:45:03.483Z,66.16
2023-05-08T01:46:09.907Z,66.09
2023-05-08T01:47:12.416Z,65.63
2023-05-08T01:48:20.026Z,64.91
2023-05-08T01:49:38.694Z,66.16
2023-05-08T01:50:46.890Z,66.23
2023-05-08T01:52:10.574Z,65.74
2023-05-08T01:53:35.314Z,64.89
2023-05-08T01:54:43.307Z,65.44
2023-05-08T01:55:47.414Z,64.89
2023-05-08T01:56:50.550Z,65.21
2023-05-08T01:57:56.555Z,65.83
2023-05-08T01:58:59.368Z,65.90
2023-05-08T02:00:03.841Z,66.27
2023-05-08T02:01:06.264Z,65.91
2023-05-08T02:02:09.648Z,65.50
2023-05-08T02:03:14.721Z,65.58
2023-05-08T02:04:17.411Z,65.55
2023-05-08T02:05:21.486Z,65.68
2023-05-08T02:06:24.046Z,65.85
2023-05-08T02:07:26.838Z,66.09
2023-05-08T02:08:30.067Z,65.81
2023-05-08T02:09:32.458Z,65.69
2023-05-08T02:10:34.888Z,65.97
2023-05-08T02:11:38.277Z,66.08
2023-05-08T02:12:41.082Z,65.91
2023-05-08T02:13:44.852Z,65.93
2023-05-08T02:14:47.967Z,65.66
2023-05-08T02:16:09.669Z,65.95
2023-05-08T02:17:12.703Z,66.73
2023-05-08T02:18:16.067Z,66.12
2023-05-08T02:19:19.908Z,65.97
2023-05-08T02:20:22.487Z,66.04
2023-05-08T02:21:24.699Z,66.14
2023-05-08T02:22:27.745Z,66.16
2023-05-08T02:23:30.023Z,66.31
2023-05-08T02:24:33.238Z,66.62
2023-05-08T02:25:35.820Z,66.92
2023-05-08T02:26:39.811Z,66.06
2023-05-08T02:27:45.711Z,66.00
2023-05-08T02:28:49.436Z,66.63
2023-05-08T02:29:52.096Z,67.08
2023-05-08T02:30:54.475Z,67.08
2023-05-08T02:31:57.586Z,67.11
2023-05-08T02:33:00.961Z,67.26
2023-05-08T02:34:04.325Z,67.15
2023-05-08T02:35:07.200Z,66.83
2023-05-08T02:36:11.216Z,66.96
2023-05-08T02:37:13.680Z,67.78
2023-05-08T02:38:15.966Z,67.59
2023-05-08T02:39:19.886Z,67.39
2023-05-08T02:40:23.591Z,67.44
2023-05-08T02:41:29.838Z,67.15
2023-05-08T02:42:32.128Z,67.40
2023-05-08T02:43:34.410Z,67.63
2023-05-08T02:44:36.520Z,67.52
2023-05-08T02:46:08.567Z,67.68
2023-05-08T02:47:26.298Z,68.06
2023-05-08T02:48:42.195Z,67.93
2023-05-08T02:49:49.134Z,68.03
2023-05-08T02:51:03.630Z,68.28
2023-05-08T02:52:22.616Z,68.30
2023-05-08T02:53:36.488Z,68.30
2023-05-08T02:54:45.108Z,69.14
2023-05-08T02:55:49.787Z,68.88
2023-05-08T02:57:02.096Z,68.71
2023-05-08T02:58:30.681Z,68.73
2023-05-08T02:59:44.494Z,69.14
2023-05-08T03:00:59.593Z,69.75
2023-05-08T03:02:09.855Z,69.34
2023-05-08T03:03:27.448Z,69.32
2023-05-08T03:04:36.926Z,69.83
2023-05-08T03:05:40.039Z,70.31
2023-05-08T03:06:45.810Z,70.50
2023-05-08T03:07:51.347Z,70.20
2023-05-08T03:08:56.031Z,69.44
2023-05-08T03:09:59.317Z,69.43
2023-05-08T03:11:06.413Z,69.83
2023-05-08T03:12:15.318Z,70.06
2023-05-08T03:13:19.279Z,70.60
2023-05-08T03:14:24.087Z,71.01
2023-05-08T03:15:28.041Z,71.35
2023-05-08T03:16:32.774Z,71.83
2023-05-08T03:17:35.606Z,71.92
2023-05-08T03:18:43.333Z,72.06
2023-05-08T03:19:50.441Z,72.20
2023-05-08T03:20:54.774Z,72.26
2023-05-08T03:21:58.214Z,72.02
2023-05-08T03:23:00.540Z,72.17
2023-05-08T03:24:03.482Z,72.23
2023-05-08T03:25:06.868Z,72.05
2023-05-08T03:26:09.602Z,71.53
2023-05-08T03:27:12.194Z,71.46
2023-05-08T03:28:14.908Z,71.15
2023-05-08T03:29:18.713Z,70.61
2023-05-08T03:30:20.934Z,70.68
2023-05-08T03:31:23.642Z,70.69
2023-05-08T03:32:26.479Z,70.63
2023-05-08T03:33:29.139Z,70.27
2023-05-08T03:34:31.597Z,69.85
2023-05-08T03:35:39.613Z,69.59
2023-05-08T03:36:42.228Z,69.53
2023-05-08T03:37:44.332Z,68.77
2023-05-08T03:38:46.572Z,68.88
2023-05-08T03:39:48.774Z,68.68
2023-05-08T03:40:51.153Z,68.22
2023-05-08T03:41:53.464Z,68.50
2023-05-08T03:42:56.192Z,68.20
2023-05-08T03:43:58.727Z,67.49
2023-05-08T03:45:01.922Z,66.50
2023-05-08T03:46:07.242Z,66.22
2023-05-08T03:47:10.278Z,66.01
2023-05-08T03:48:14.187Z,66.36
2023-05-08T03:49:17.768Z,66.35
2023-05-08T03:50:20.237Z,67.16
2023-05-08T03:51:22.860Z,66.52
2023-05-08T03:52:25.159Z,65.84
2023-05-08T03:53:27.305Z,65.93
2023-05-08T03:54:30.415Z,65.23
2023-05-08T03:55:32.924Z,64.87
2023-05-08T03:56:35.159Z,64.73
2023-05-08T03:57:46.218Z,65.16
2023-05-08T03:58:53.580Z,64.75
2023-05-08T04:00:06.790Z,63.67
2023-05-08T04:01:17.988Z,63.56
2023-05-08T04:02:31.073Z,64.04
2023-05-08T04:03:44.329Z,62.96
2023-05-08T04:04:48.103Z,63.03
2023-05-08T04:06:30.802Z,63.86
2023-05-08T04:07:39.609Z,63.15
2023-05-08T04:08:48.621Z,62.74
2023-05-08T04:09:59.575Z,62.74
2023-05-08T04:11:11.448Z,63.19
2023-05-08T04:12:39.034Z,61.94
2023-05-08T04:13:48.152Z,61.12
2023-05-08T04:14:56.804Z,61.17
2023-05-08T04:16:06.967Z,61.26
2023-05-08T04:17:10.187Z,61.49
2023-05-08T04:18:18.141Z,61.78
2023-05-08T04:19:34.125Z,62.27
2023-05-08T04:20:39.387Z,62.44
2023-05-08T04:21:43.416Z,61.59
2023-05-08T04:22:46.815Z,61.21
2023-05-08T04:23:51.084Z,60.49
2023-05-08T04:24:56.279Z,61.34
2023-05-08T04:26:00.046Z,60.68
2023-05-08T04:27:02.937Z,60.56
2023-05-08T04:28:05.590Z,60.24
2023-05-08T04:29:07.912Z,59.45
2023-05-08T04:30:10.647Z,59.47
2023-05-08T04:31:15.588Z,59.45
2023-05-08T04:32:17.951Z,59.06
2023-05-08T04:33:20.188Z,58.72
2023-05-08T04:34:23.215Z,58.42
2023-05-08T04:35:25.884Z,58.80
2023-05-08T04:36:31.053Z,58.62
2023-05-08T04:37:33.223Z,58.69
2023-05-08T04:38:38.149Z,58.90
2023-05-08T04:39:41.919Z,59.16
2023-05-08T04:40:45.477Z,58.83
2023-05-08T04:41:48.825Z,58.11
2023-05-08T04:42:51.055Z,57.99
2023-05-08T04:43:53.891Z,58.25
2023-05-08T04:44:56.027Z,58.64
2023-05-08T04:45:58.205Z,58.88
2023-05-08T04:47:00.277Z,59.20
2023-05-08T04:48:02.377Z,58.98
2023-05-08T04:49:04.571Z,58.56
2023-05-08T04:50:06.972Z,59.22
2023-05-08T04:51:09.035Z,59.63
2023-05-08T04:52:11.262Z,58.70
2023-05-08T04:53:13.525Z,59.25
2023-05-08T04:54:15.655Z,58.00
2023-05-08T04:55:17.843Z,57.91
2023-05-08T04:56:19.954Z,57.76
2023-05-08T04:57:22.046Z,57.75
2023-05-08T04:58:24.128Z,56.35
2023-05-08T04:59:26.355Z,56.07
2023-05-08T05:00:28.464Z,56.46
2023-05-08T05:01:31.005Z,56.19
2023-05-08T05:02:33.174Z,55.71
2023-05-08T05:03:35.497Z,55.38
2023-05-08T05:04:37.679Z,55.47
2023-05-08T05:05:39.821Z,55.42
2023-05-08T05:06:41.994Z,55.55
2023-05-08T05:07:44.106Z,55.45
2023-05-08T05:08:46.187Z,55.58
2023-05-08T05:09:48.321Z,55.08
2023-05-08T05:10:50.442Z,55.59
2023-05-08T05:11:52.662Z,55.68
2023-05-08T05:12:55.006Z,55.69
2023-05-08T05:13:57.208Z,56.07
2023-05-08T05:15:00.609Z,56.37
2023-05-08T05:16:02.757Z,56.27
2023-05-08T05:17:04.938Z,56.33
2023-05-08T05:18:07.040Z,56.22
2023-05-08T05:19:09.207Z,56.20
2023-05-08T05:20:11.847Z,56.35
2023-05-08T05:21:14.129Z,56.03
2023-05-08T05:22:16.324Z,56.40
2023-05-08T05:23:18.463Z,56.33
2023-05-08T05:24:20.607Z,56.27
2023-05-08T05:25:22.714Z,55.83
2023-05-08T05:26:24.856Z,55.52
2023-05-08T05:27:27.187Z,55.95
2023-05-08T05:28:29.280Z,55.80
2023-05-08T05:29:31.421Z,56.06
2023-05-08T05:30:33.614Z,56.12
2023-05-08T05:31:35.803Z,56.24
2023-05-08T05:32:37.959Z,56.28
2023-05-08T05:33:40.585Z,55.49
2023-05-08T05:34:42.708Z,55.26
2023-05-08T05:35:44.828Z,55.12
2023-05-08T05:36:47.257Z,55.57
2023-05-08T05:37:49.427Z,55.40
2023-05-08T05:38:51.531Z,55.08
2023-05-08T05:39:53.604Z,55.03
2023-05-08T05:40:55.749Z,54.97
2023-05-08T05:41:57.857Z,54.44
2023-05-08T05:42:59.969Z,54.53
2023-05-08T05:44:02.163Z,54.41
2023-05-08T05:45:04.592Z,54.79
2023-05-08T05:46:07.792Z,54.37
2023-05-08T05:47:12.649Z,54.16
2023-05-08T05:48:15.008Z,53.68
2023-05-08T05:49:17.173Z,53.92
2023-05-08T05:50:19.917Z,53.54
2023-05-08T05:51:22.395Z,53.31
2023-05-08T05:52:24.569Z,52.98
2023-05-08T05:53:26.730Z,53.08
2023-05-08T05:54:28.806Z,52.98
2023-05-08T05:55:31.426Z,52.78
2023-05-08T05:56:37.312Z,53.13
2023-05-08T05:57:39.481Z,53.26
2023-05-08T05:58:44.923Z,52.71
2023-05-08T05:59:47.209Z,52.96
2023-05-08T06:00:49.540Z,52.27
2023-05-08T06:01:51.861Z,52.45
2023-05-08T06:02:54.122Z,52.01
2023-05-08T06:03:56.487Z,52.25
2023-05-08T06:04:59.360Z,52.68
2023-05-08T06:06:01.484Z,52.83
2023-05-08T06:07:03.621Z,52.97
2023-05-08T06:08:05.856Z,52.31
2023-05-08T06:09:08.039Z,52.38
2023-05-08T06:10:11.086Z,51.97
2023-05-08T06:11:13.252Z,51.89
2023-05-08T06:12:15.465Z,51.81
2023-05-08T06:13:17.679Z,52.09
2023-05-08T06:14:20.423Z,52.38
2023-05-08T06:15:22.621Z,53.16
2023-05-08T06:16:25.052Z,52.08
2023-05-08T06:17:27.296Z,51.81
2023-05-08T06:18:29.488Z,51.69
2023-05-08T06:19:31.648Z,51.67
2023-05-08T06:20:33.771Z,51.59
2023-05-08T06:21:35.924Z,51.70
2023-05-08T06:22:39.353Z,53.04
2023-05-08T06:23:42.751Z,51.99
2023-05-08T06:24:45.265Z,51.72
2023-05-08T06:25:47.323Z,51.92
2023-05-08T06:26:49.434Z,52.29
2023-05-08T06:27:51.577Z,50.99
2023-05-08T06:28:53.676Z,51.64
2023-05-08T06:30:14.112Z,50.83
2023-05-08T06:31:16.279Z,50.61
2023-05-08T06:32:19.272Z,50.91
2023-05-08T06:33:21.499Z,50.75
2023-05-08T06:34:23.610Z,51.23
2023-05-08T06:35:25.781Z,51.10
2023-05-08T06:36:27.870Z,50.84
2023-05-08T06:37:29.985Z,50.78
2023-05-08T06:38:32.284Z,50.55
2023-05-08T06:39:34.468Z,50.79
2023-05-08T06:40:36.581Z,50.06
2023-05-08T06:41:38.751Z,50.58
2023-05-08T06:42:41.371Z,50.71
2023-05-08T06:43:43.515Z,50.45
2023-05-08T06:44:45.630Z,49.83
2023-05-08T06:45:47.902Z,49.80
2023-05-08T06:46:50.022Z,49.15
2023-05-08T06:47:52.232Z,48.91
2023-05-08T06:48:54.413Z,48.95
2023-05-08T06:49:56.663Z,49.10
2023-05-08T06:50:58.796Z,48.60
2023-05-08T06:52:01.262Z,48.55
2023-05-08T06:53:03.391Z,48.32
2023-05-08T06:54:08.726Z,48.43
2023-05-08T06:55:11.033Z,48.46
2023-05-08T06:56:13.255Z,49.57
2023-05-08T06:57:16.256Z,48.58
2023-05-08T06:58:18.399Z,48.75
2023-05-08T06:59:21.441Z,48.31
2023-05-08T07:00:23.545Z,48.96
2023-05-08T07:01:25.770Z,48.36
2023-05-08T07:02:27.965Z,48.04
2023-05-08T07:03:30.122Z,48.80
2023-05-08T07:04:33.031Z,48.41
2023-05-08T07:05:35.206Z,48.88
2023-05-08T07:06:37.333Z,48.42
2023-05-08T07:07:39.477Z,47.01
2023-05-08T07:08:41.694Z,47.53
2023-05-08T07:09:43.824Z,46.93
2023-05-08T07:10:46.100Z,47.04
2023-05-08T07:11:48.335Z,46.16
2023-05-08T07:12:50.751Z,46.19
2023-05-08T07:13:52.925Z,46.59
2023-05-08T07:14:55.917Z,46.44
2023-05-08T07:15:59.455Z,46.25
2023-05-08T07:17:07.699Z,45.93
2023-05-08T07:18:09.922Z,45.37
2023-05-08T07:19:12.081Z,44.46
2023-05-08T07:20:14.299Z,44.64
2023-05-08T07:21:18.141Z,44.00
2023-05-08T07:22:21.180Z,44.10
2023-05-08T07:23:23.349Z,44.00
2023-05-08T07:24:25.406Z,43.55
2023-05-08T07:25:27.551Z,42.95
2023-05-08T07:26:29.683Z,43.55
2023-05-08T07:27:31.875Z,43.37
2023-05-08T07:28:34.149Z,43.33
2023-05-08T07:29:36.426Z,43.32
2023-05-08T07:30:38.478Z,44.41
2023-05-08T07:31:41.475Z,43.95
2023-05-08T07:32:43.800Z,44.70
2023-05-08T07:33:47.017Z,44.34
2023-05-08T07:34:49.157Z,44.40
2023-05-08T07:35:51.506Z,44.63
2023-05-08T07:36:53.629Z,45.41
2023-05-08T07:37:55.822Z,46.04
2023-05-08T07:38:57.909Z,44.78
2023-05-08T07:39:59.990Z,44.80
2023-05-08T07:41:02.270Z,44.09
2023-05-08T07:42:04.439Z,44.46
2023-05-08T07:43:06.554Z,44.70
2023-05-08T07:44:08.822Z,45.41
2023-05-08T07:45:12.389Z,45.14
2023-05-08T07:46:18.213Z,45.43
2023-05-08T07:47:20.465Z,45.69
2023-05-08T07:48:22.668Z,45.89
2023-05-08T07:49:25.068Z,46.40
2023-05-08T07:50:27.228Z,46.21
2023-05-08T07:51:29.513Z,45.48
2023-05-08T07:52:31.900Z,45.46
2023-05-08T07:53:34.098Z,45.67
2023-05-08T07:54:36.167Z,45.96
2023-05-08T07:55:38.363Z,45.87
2023-05-08T07:56:40.491Z,45.04
2023-05-08T07:57:43.503Z,44.80
2023-05-08T07:58:46.111Z,46.31
2023-05-08T07:59:48.272Z,44.96
2023-05-08T08:00:50.346Z,44.44
2023-05-08T08:01:52.664Z,44.32
2023-05-08T08:02:54.952Z,43.85
2023-05-08T08:03:57.500Z,44.02
2023-05-08T08:04:59.690Z,44.36
2023-05-08T08:06:01.807Z,44.35
2023-05-08T08:07:03.969Z,44.63
2023-05-08T08:08:06.121Z,44.90
2023-05-08T08:09:08.254Z,44.85
2023-05-08T08:10:19.404Z,43.71
2023-05-08T08:11:21.767Z,43.94
2023-05-08T08:12:24.005Z,44.30
2023-05-08T08:13:26.289Z,44.59
2023-05-08T08:14:28.803Z,44.51
2023-05-08T08:15:31.437Z,44.78
2023-05-08T08:16:34.186Z,44.52
2023-05-08T08:17:36.735Z,44.87
2023-05-08T08:18:42.584Z,44.11
2023-05-08T08:19:45.087Z,44.18
2023-05-08T08:20:47.531Z,44.05
2023-05-08T08:21:49.702Z,44.34
2023-05-08T08:22:51.952Z,44.33
2023-05-08T08:23:54.051Z,43.66
2023-05-08T08:24:56.701Z,44.18
2023-05-08T08:25:58.863Z,43.67
2023-05-08T08:27:00.973Z,43.95
2023-05-08T08:28:03.099Z,44.67
2023-05-08T08:29:05.310Z,43.85
2023-05-08T08:30:16.958Z,42.97
2023-05-08T08:31:20.712Z,42.99
2023-05-08T08:32:22.855Z,41.44
2023-05-08T08:33:24.952Z,41.53
2023-05-08T08:34:27.090Z,42.12
2023-05-08T08:35:30.253Z,42.12
2023-05-08T08:36:32.729Z,42.17
2023-05-08T08:37:34.909Z,42.28
2023-05-08T08:38:37.566Z,43.51
2023-05-08T08:39:39.719Z,42.71
2023-05-08T08:40:42.595Z,41.29
2023-05-08T08:41:44.750Z,39.44
2023-05-08T08:42:47.354Z,38.76
2023-05-08T08:43:49.472Z,38.53
2023-05-08T08:44:51.658Z,38.98
2023-05-08T08:45:53.829Z,39.50
2023-05-08T08:46:58.398Z,40.41
2023-05-08T08:48:02.305Z,38.90
2023-05-08T08:49:05.118Z,39.26
2023-05-08T08:50:10.388Z,40.34
2023-05-08T08:51:42.394Z,39.00
2023-05-08T08:53:08.808Z,38.68
2023-05-08T08:54:14.868Z,38.65
2023-05-08T08:55:18.360Z,38.58
2023-05-08T08:56:22.835Z,36.83
2023-05-08T08:57:26.740Z,37.19
2023-05-08T08:58:33.416Z,37.41
2023-05-08T08:59:38.262Z,36.96
2023-05-08T09:00:40.750Z,37.87
2023-05-08T09:01:45.689Z,37.03
2023-05-08T09:02:48.094Z,36.28
2023-05-08T09:03:50.701Z,36.82
2023-05-08T09:04:53.166Z,35.49
2023-05-08T09:06:01.082Z,34.05
2023-05-08T09:07:05.416Z,34.09
2023-05-08T09:08:07.792Z,32.93
2023-05-08T09:09:12.635Z,32.58
2023-05-08T09:10:15.538Z,33.27
2023-05-08T09:11:17.664Z,31.72
2023-05-08T09:12:19.750Z,31.31
2023-05-08T09:13:22.783Z,30.18
2023-05-08T09:14:26.719Z,28.61
2023-05-08T09:15:28.844Z,28.33
2023-05-08T09:16:31.160Z,28.90
2023-05-08T09:17:33.285Z,27.96
2023-05-08T09:18:35.478Z,27.70
2023-05-08T09:19:38.127Z,28.50
2023-05-08T09:20:41.359Z,28.85
2023-05-08T09:21:43.612Z,29.14
2023-05-08T09:22:46.130Z,29.22
2023-05-08T09:24:02.426Z,29.13
2023-05-08T09:25:04.935Z,29.64
2023-05-08T09:26:07.135Z,30.71
2023-05-08T09:27:21.316Z,28.96
2023-05-08T09:28:24.784Z,28.49
2023-05-08T09:29:26.865Z,29.53
2023-05-08T09:30:29.026Z,28.14
2023-05-08T09:31:39.950Z,27.65
2023-05-08T09:32:43.860Z,28.05
2023-05-08T09:33:46.063Z,28.12
2023-05-08T09:34:52.689Z,27.85
2023-05-08T09:35:55.834Z,26.54
2023-05-08T09:37:09.875Z,26.94
2023-05-08T09:38:30.202Z,26.45
2023-05-08T09:39:32.338Z,26.32
2023-05-08T09:40:34.590Z,26.26
2023-05-08T09:41:36.688Z,26.71
2023-05-08T09:42:38.997Z,26.01
2023-05-08T09:43:42.170Z,26.43
2023-05-08T09:44:46.053Z,25.99
2023-05-08T09:45:48.178Z,26.40
2023-05-08T09:46:50.752Z,26.93
2023-05-08T09:47:52.909Z,27.14
2023-05-08T09:48:57.467Z,26.85
2023-05-08T09:50:01.335Z,26.72
2023-05-08T09:51:07.206Z,26.51
2023-05-08T09:52:15.763Z,26.96
2023-05-08T09:53:17.953Z,27.35
2023-05-08T09:54:20.076Z,27.48
2023-05-08T09:55:22.216Z,27.48
2023-05-08T09:56:40.388Z,28.53
2023-05-08T09:57:54.050Z,28.09
2023-05-08T09:58:56.211Z,28.03
2023-05-08T10:00:10.072Z,27.96
2023-05-08T10:01:31.026Z,26.93
2023-05-08T10:02:33.438Z,25.96
2023-05-08T10:03:50.587Z,26.02
2023-05-08T10:04:52.918Z,26.39
2023-05-08T10:05:55.036Z,25.63
2023-05-08T10:07:00.389Z,25.42
2023-05-08T10:08:19.876Z,25.16
2023-05-08T10:09:21.968Z,25.18
2023-05-08T10:10:28.849Z,25.88
2023-05-08T10:11:31.445Z,24.75
2023-05-08T10:12:33.941Z,25.76
2023-05-08T10:13:36.089Z,25.99
2023-05-08T10:14:38.247Z,24.67
2023-05-08T10:15:42.838Z,24.98
2023-05-08T10:16:46.564Z,24.08
2023-05-08T10:17:54.951Z,24.28
2023-05-08T10:19:02.101Z,24.72
2023-05-08T10:20:07.831Z,24.52
2023-05-08T10:21:10.046Z,24.15
2023-05-08T10:22:12.815Z,23.63
2023-05-08T10:23:17.428Z,23.44
2023-05-08T10:24:21.617Z,24.40
2023-05-08T10:25:24.516Z,24.55
2023-05-08T10:26:31.838Z,25.65
2023-05-08T10:27:41.629Z,25.29
2023-05-08T10:28:50.431Z,23.52
2023-05-08T10:29:54.670Z,24.34
2023-05-08T10:31:03.680Z,24.18
2023-05-08T10:32:11.368Z,22.78
2023-05-08T10:33:15.987Z,22.83
2023-05-08T10:34:22.858Z,23.22
2023-05-08T10:35:25.409Z,22.39
2023-05-08T10:36:30.322Z,22.69
2023-05-08T10:37:33.637Z,23.05
2023-05-08T10:38:37.328Z,23.01
2023-05-08T10:39:40.733Z,22.79
2023-05-08T10:40:43.063Z,22.71
2023-05-08T10:41:45.173Z,23.30
2023-05-08T10:42:47.935Z,22.59
2023-05-08T10:43:50.524Z,22.20
2023-05-08T10:44:53.020Z,22.37
2023-05-08T10:45:57.097Z,22.57
2023-05-08T10:47:11.911Z,23.43
2023-05-08T10:48:40.433Z,23.00
2023-05-08T10:50:06.135Z,22.87
2023-05-08T10:51:22.231Z,23.79
2023-05-08T10:52:30.357Z,24.09
2023-05-08T10:53:51.441Z,24.24
2023-05-08T10:55:02.288Z,25.14
2023-05-08T10:56:04.760Z,23.92
2023-05-08T10:57:09.642Z,22.82
2023-05-08T10:58:13.004Z,22.79
2023-05-08T10:59:19.155Z,22.31
2023-05-08T11:00:22.722Z,22.14
2023-05-08T11:01:26.339Z,22.53
2023-05-08T11:02:30.378Z,22.78
2023-05-08T11:03:33.883Z,21.88
2023-05-08T11:04:36.613Z,21.25
2023-05-08T11:05:48.646Z,21.93
2023-05-08T11:06:53.276Z,22.71
2023-05-08T11:07:59.295Z,22.89
2023-05-08T11:09:01.657Z,23.44
2023-05-08T11:10:07.985Z,23.37
2023-05-08T11:11:26.937Z,22.46
2023-05-08T11:12:33.945Z,21.83
2023-05-08T11:13:36.654Z,22.27
2023-05-08T11:14:41.875Z,22.56
2023-05-08T11:15:50.405Z,21.63
2023-05-08T11:16:55.242Z,22.20
2023-05-08T11:17:57.636Z,22.56
2023-05-08T11:19:18.515Z,22.26
2023-05-08T11:20:23.657Z,21.46
2023-05-08T11:21:26.595Z,20.75
2023-05-08T11:22:33.221Z,20.99
2023-05-08T11:23:36.709Z,21.42
2023-05-08T11:24:39.874Z,20.21
2023-05-08T11:25:43.559Z,21.16
2023-05-08T11:26:48.936Z,20.11
2023-05-08T11:27:51.213Z,20.47
2023-05-08T11:28:53.327Z,20.64
2023-05-08T11:30:35.129Z,20.33
2023-05-08T11:31:49.966Z,21.19
2023-05-08T11:33:04.710Z,19.96
2023-05-08T11:34:42.355Z,20.85
2023-05-08T11:36:03.413Z,20.72
2023-05-08T11:37:09.373Z,20.79
2023-05-08T11:38:20.079Z,19.90
2023-05-08T11:39:22.050Z,19.33
2023-05-08T11:40:47.241Z,20.08
2023-05-08T11:41:49.396Z,20.68
2023-05-08T11:42:51.514Z,20.80
2023-05-08T11:44:02.522Z,21.01
2023-05-08T11:45:07.816Z,20.97
2023-05-08T11:46:16.812Z,21.13
2023-05-08T11:47:20.413Z,19.56
2023-05-08T11:48:22.785Z,20.57
2023-05-08T11:49:29.586Z,20.28
2023-05-08T11:50:32.011Z,19.32
2023-05-08T11:51:34.237Z,19.42
2023-05-08T11:52:37.584Z,20.12
2023-05-08T11:53:40.030Z,19.38
2023-05-08T11:54:42.494Z,19.36
2023-05-08T11:55:48.490Z,19.46
2023-05-08T11:56:52.009Z,19.58
2023-05-08T11:57:56.889Z,20.90
2023-05-08T11:59:05.783Z,20.03
2023-05-08T12:00:09.966Z,19.37
2023-05-08T12:01:17.542Z,20.11
2023-05-08T12:02:20.043Z,21.41
2023-05-08T12:03:25.090Z,20.36
2023-05-08T12:04:27.504Z,20.67
2023-05-08T12:05:29.784Z,19.33
2023-05-08T12:06:32.844Z,19.63
2023-05-08T12:07:47.472Z,20.00
2023-05-08T12:08:49.598Z,19.21
2023-05-08T12:09:51.784Z,19.87
2023-05-08T12:10:56.623Z,19.83
2023-05-08T12:11:59.071Z,19.91
2023-05-08T12:13:01.377Z,20.65
2023-05-08T12:14:03.577Z,20.42
2023-05-08T12:15:07.794Z,19.63
2023-05-08T12:16:11.208Z,19.43
2023-05-08T12:17:17.844Z,19.64
2023-05-08T12:18:21.472Z,19.30
2023-05-08T12:19:23.596Z,19.51
2023-05-08T12:20:25.789Z,20.02
2023-05-08T12:21:27.897Z,19.06
2023-05-08T12:22:30.011Z,19.38
2023-05-08T12:23:33.078Z,19.56
2023-05-08T12:24:35.250Z,19.14
2023-05-08T12:25:40.717Z,19.30
2023-05-08T12:26:42.878Z,18.96
2023-05-08T12:27:45.447Z,19.11
2023-05-08T12:28:48.296Z,18.38
2023-05-08T12:29:50.468Z,19.13
2023-05-08T12:30:52.622Z,18.44
2023-05-08T12:31:54.896Z,18.31
2023-05-08T12:32:57.337Z,17.72
2023-05-08T12:33:59.521Z,18.97
2023-05-08T12:35:01.810Z,17.98
2023-05-08T12:36:05.644Z,19.05
2023-05-08T12:37:07.856Z,17.99
2023-05-08T12:38:11.960Z,17.95
2023-05-08T12:39:18.898Z,18.47
2023-05-08T12:40:26.645Z,18.22
2023-05-08T12:41:28.787Z,17.63
2023-05-08T12:42:43.883Z,16.76
2023-05-08T12:43:46.782Z,16.73
2023-05-08T12:44:52.564Z,16.95
2023-05-08T12:45:54.782Z,16.39
2023-05-08T12:46:57.741Z,16.76
2023-05-08T12:48:04.862Z,17.42
2023-05-08T12:49:10.461Z,17.20
2023-05-08T12:50:15.042Z,18.54
2023-05-08T12:51:17.382Z,18.06
2023-05-08T12:52:19.530Z,16.87
2023-05-08T12:53:22.064Z,16.78
2023-05-08T12:54:38.509Z,16.76
2023-05-08T12:55:52.800Z,16.03
2023-05-08T12:56:55.075Z,16.46
2023-05-08T12:58:15.395Z,16.19
2023-05-08T12:59:28.714Z,16.87
2023-05-08T13:00:39.223Z,15.90
2023-05-08T13:01:41.400Z,16.88
2023-05-08T13:02:54.198Z,17.51
2023-05-08T13:04:02.328Z,17.50
2023-05-08T13:05:05.858Z,17.89
2023-05-08T13:06:20.742Z,18.27
2023-05-08T13:07:22.875Z,16.80
2023-05-08T13:08:34.120Z,16.70
2023-05-08T13:09:36.578Z,16.61
2023-05-08T13:10:50.540Z,15.79
2023-05-08T13:11:52.621Z,15.53
2023-05-08T13:12:54.733Z,15.98
2023-05-08T13:13:56.921Z,15.87
2023-05-08T13:14:59.142Z,16.58
2023-05-08T13:16:05.980Z,15.68
2023-05-08T13:17:08.302Z,16.54
2023-05-08T13:18:10.560Z,15.61
2023-05-08T13:19:12.843Z,16.60
2023-05-08T13:20:15.083Z,16.55
2023-05-08T13:21:17.419Z,16.26
2023-05-08T13:22:23.125Z,16.55
2023-05-08T13:23:25.487Z,15.74
2023-05-08T13:24:27.551Z,15.44
2023-05-08T13:25:32.870Z,15.85
2023-05-08T13:26:34.981Z,16.21
2023-05-08T13:27:37.153Z,16.91
2023-05-08T13:28:39.245Z,15.94
2023-05-08T13:29:41.336Z,15.92
2023-05-08T13:30:43.525Z,15.44
2023-05-08T13:31:45.725Z,15.53
2023-05-08T13:32:49.318Z,15.52
2023-05-08T13:33:51.430Z,14.78
2023-05-08T13:34:57.056Z,15.08
2023-05-08T13:36:00.884Z,14.66
2023-05-08T13:37:03.057Z,14.57
2023-05-08T13:38:06.094Z,13.94
2023-05-08T13:39:08.366Z,14.78
2023-05-08T13:40:11.335Z,15.07
2023-05-08T13:41:13.530Z,15.19
2023-05-08T13:42:15.743Z,14.95
2023-05-08T13:43:17.927Z,15.37
2023-05-08T13:44:20.060Z,14.29
2023-05-08T13:45:22.228Z,13.92
2023-05-08T13:46:24.978Z,13.44
2023-05-08T13:47:27.618Z,13.92
2023-05-08T13:48:29.728Z,13.54
2023-05-08T13:49:31.807Z,13.60
2023-05-08T13:50:33.884Z,14.56
2023-05-08T13:51:35.978Z,14.46
2023-05-08T13:52:38.971Z,13.78
2023-05-08T13:53:41.055Z,13.72
2023-05-08T13:54:43.206Z,14.04
2023-05-08T13:55:45.528Z,14.04